Time;durP1;ratioP1;P1;durP2;ratioP2;P2;SDS_P1;SDS_P2;PMS_P1;PMS_P2;Temp;Humidity;BMP_temperature;BMP_pressure;BME280_temperature;BME280_humidity;BME280_pressure;Samples;Min_cycle;Max_cycle;Signal;HPM_P1;HPM_P2
2024/04/15 00:00:11;;;;;;;;;0.00;0.00;;;;;25.10;38.71;101783.06;5184537;27;44015;-76
2024/04/15 00:02:36;;;;;;;;;2.00;1.00;;;;;25.10;38.16;101780.41;5184419;27;43956;-76
2024/04/15 00:05:02;;;;;;;;;1.00;1.00;;;;;25.07;38.90;101776.25;5184113;27;43984;-76
2024/04/15 00:07:28;;;;;;;;;1.00;1.00;;;;;25.11;39.32;101782.03;5184124;27;44781;-76
2024/04/15 00:09:53;;;;;;;;;2.00;1.00;;;;;25.09;38.82;101772.56;5184052;27;43897;-76
2024/04/15 00:12:18;;;;;;;;;0.67;0.67;;;;;25.06;38.64;101771.09;5184295;27;43705;-76
2024/04/15 00:14:44;;;;;;;;;2.67;1.00;;;;;25.11;38.44;101779.38;5184184;27;44016;-76
2024/04/15 00:17:10;;;;;;;;;1.00;1.00;;;;;25.03;38.50;101761.63;5184032;27;44920;-76
2024/04/15 00:19:36;;;;;;;;;1.00;0.00;;;;;25.03;38.65;101758.16;5183958;27;43899;-77
2024/04/15 00:22:01;;;;;;;;;0.00;0.00;;;;;25.08;39.19;101774.44;5184082;27;44024;-76
2024/04/15 00:24:27;;;;;;;;;2.00;2.00;;;;;25.12;38.05;101780.22;5184102;27;43848;-76
2024/04/15 00:26:52;;;;;;;;;1.00;1.00;;;;;25.04;39.40;101765.13;5183833;27;44805;-76
2024/04/15 00:29:18;;;;;;;;;2.33;0.00;;;;;25.09;38.61;101769.91;5183876;27;43960;-76
2024/04/15 00:31:43;;;;;;;;;0.00;0.00;;;;;25.05;38.98;101761.47;5184119;27;44030;-76
2024/04/15 00:34:08;;;;;;;;;0.00;0.00;;;;;25.04;39.16;101763.31;5183661;27;44113;-76
2024/04/15 00:36:35;;;;;;;;;1.33;0.33;;;;;24.87;39.19;101732.47;5183609;27;45648;-76
2024/04/15 00:39:01;;;;;;;;;0.67;0.00;;;;;25.13;39.28;101763.25;5183772;27;44034;-76
2024/04/15 00:41:26;;;;;;;;;0.33;0.33;;;;;25.12;39.48;101767.72;5182094;27;44148;-76
2024/04/15 00:43:51;;;;;;;;;0.67;0.67;;;;;24.99;38.92;101747.00;5184175;27;43924;-77
2024/04/15 00:46:17;;;;;;;;;0.67;0.67;;;;;25.12;39.02;101756.25;5186291;27;44050;-77
2024/04/15 00:48:43;;;;;;;;;1.33;0.67;;;;;25.03;39.02;101740.34;5185749;27;43932;-77
2024/04/15 00:51:09;;;;;;;;;2.00;0.67;;;;;25.12;38.17;101757.09;5212399;27;44004;-76
2024/04/15 00:53:35;;;;;;;;;0.67;0.67;;;;;25.11;38.76;101742.09;5186398;27;43903;-76
2024/04/15 00:56:03;;;;;;;;;1.00;1.00;;;;;25.11;38.61;101743.97;5186065;27;44889;-76
2024/04/15 00:58:30;;;;;;;;;0.00;0.00;;;;;25.10;38.21;101735.13;5186169;27;44046;-77
2024/04/15 01:00:58;;;;;;;;;1.00;1.00;;;;;25.04;38.62;101722.53;5186227;27;43994;-77
2024/04/15 01:03:24;;;;;;;;;1.33;0.00;;;;;25.00;38.28;101706.06;5185915;27;43882;-76
2024/04/15 01:05:50;;;;;;;;;3.00;1.00;;;;;25.11;38.22;101714.66;5185812;27;43975;-76
2024/04/15 01:08:15;;;;;;;;;1.00;0.00;;;;;25.03;38.85;101705.72;5186492;27;43959;-76
2024/04/15 01:10:41;;;;;;;;;1.00;0.00;;;;;25.08;38.14;101710.53;5184608;27;44074;-76
2024/04/15 01:13:06;;;;;;;;;1.00;1.00;;;;;25.03;38.45;101703.06;5186215;27;43919;-76
2024/04/15 01:15:32;;;;;;;;;1.00;1.00;;;;;24.99;39.17;101695.59;5185668;27;44689;-77
2024/04/15 01:17:57;;;;;;;;;2.00;1.00;;;;;25.07;38.42;101706.22;5185659;27;43952;-76
2024/04/15 01:20:23;;;;;;;;;2.00;0.33;;;;;24.99;38.39;101693.75;5186078;27;43785;-76
2024/04/15 01:22:53;;;;;;;;;0.00;0.00;;;;;25.08;39.33;101707.88;5186094;27;43760;-76
2024/04/15 01:25:18;;;;;;;;;2.00;0.00;;;;;25.09;39.15;101712.16;5184841;27;68907;-76
2024/04/15 01:27:44;;;;;;;;;1.00;0.00;;;;;24.85;38.84;101666.91;5185637;27;44357;-77
2024/04/15 01:30:10;;;;;;;;;0.00;0.00;;;;;24.98;38.83;101680.63;5186230;27;43845;-76
2024/04/15 01:32:35;;;;;;;;;1.00;1.00;;;;;24.95;38.86;101676.50;5185579;27;43857;-76
2024/04/15 01:35:00;;;;;;;;;2.00;1.00;;;;;25.08;37.76;101699.88;5185929;27;44858;-77
2024/04/15 01:37:27;;;;;;;;;1.00;1.00;;;;;25.08;38.09;101697.22;5186022;27;43853;-76
2024/04/15 01:39:53;;;;;;;;;0.67;0.67;;;;;25.07;39.44;101685.75;5186052;27;43999;-77
2024/04/15 01:42:18;;;;;;;;;0.00;0.00;;;;;25.08;38.82;101683.91;5185881;27;44035;-77
2024/04/15 01:44:43;;;;;;;;;1.00;1.00;;;;;25.09;38.79;101682.06;5185673;27;46013;-77
2024/04/15 01:47:09;;;;;;;;;0.00;0.00;;;;;24.96;38.27;101657.69;5185352;27;43850;-76
2024/04/15 01:49:34;;;;;;;;;1.00;1.00;;;;;25.09;38.14;101668.75;5185924;27;44016;-77
2024/04/15 01:52:00;;;;;;;;;0.00;0.00;;;;;25.05;38.67;101671.78;5185860;27;44025;-76
2024/04/15 01:54:25;;;;;;;;;0.00;0.00;;;;;25.00;38.66;101650.16;5185374;27;44811;-76
2024/04/15 01:56:50;;;;;;;;;1.00;1.00;;;;;25.09;38.53;101674.06;5184029;27;43991;-77
2024/04/15 01:59:15;;;;;;;;;0.33;0.33;;;;;25.09;37.95;101676.72;5185699;27;43880;-77
2024/04/15 02:01:41;;;;;;;;;0.33;0.33;;;;;25.09;38.45;101669.56;5185371;27;43840;-77
2024/04/15 02:04:06;;;;;;;;;0.00;0.00;;;;;25.04;38.94;101664.78;5185515;27;44719;-76
2024/04/15 02:06:32;;;;;;;;;0.00;0.00;;;;;24.76;38.80;101624.59;5185643;27;43955;-76
2024/04/15 02:08:57;;;;;;;;;0.00;0.00;;;;;24.94;39.20;101651.72;5185826;27;43783;-76
2024/04/15 02:11:23;;;;;;;;;1.00;1.00;;;;;25.05;38.49;101666.47;5183837;27;44079;-77
2024/04/15 02:13:48;;;;;;;;;1.67;0.00;;;;;24.98;38.04;101654.03;5185423;27;44079;-76
2024/04/15 02:16:14;;;;;;;;;0.00;0.00;;;;;25.05;38.51;101663.78;5185063;27;43916;-77
2024/04/15 02:18:39;;;;;;;;;0.00;0.00;;;;;24.98;39.17;101644.22;5185591;27;43959;-77
2024/04/15 02:21:05;;;;;;;;;0.00;0.00;;;;;24.99;38.33;101639.69;5185570;27;43928;-76
2024/04/15 02:23:30;;;;;;;;;0.00;0.00;;;;;24.95;39.00;101640.06;5185800;27;44893;-76
2024/04/15 02:25:56;;;;;;;;;0.00;0.00;;;;;25.09;38.26;101652.75;5185385;27;43816;-77
2024/04/15 02:28:21;;;;;;;;;1.00;1.00;;;;;25.07;38.60;101648.47;5185445;27;43924;-77
2024/04/15 02:30:50;;;;;;;;;0.00;0.00;;;;;25.09;38.24;101652.75;5185143;27;43963;-77
2024/04/15 02:33:15;;;;;;;;;0.00;0.00;;;;;25.08;39.16;101643.97;5185351;27;44037;-77
2024/04/15 02:35:41;;;;;;;;;1.00;1.00;;;;;24.96;37.95;101615.09;5185294;27;44008;-76
2024/04/15 02:38:06;;;;;;;;;0.67;0.67;;;;;24.98;38.15;101616.75;5185429;27;43900;-77
2024/04/15 02:40:32;;;;;;;;;0.00;0.00;;;;;25.08;38.01;101625.34;5185279;27;43907;-76
2024/04/15 02:42:58;;;;;;;;;2.00;1.00;;;;;25.05;39.13;101623.03;5184968;27;45673;-77
2024/04/15 02:45:24;;;;;;;;;0.00;0.00;;;;;25.06;39.08;101622.00;5184715;27;43888;-78
2024/04/15 02:47:49;;;;;;;;;0.67;0.00;;;;;25.07;38.48;101629.00;5185222;27;43920;-77
2024/04/15 02:50:14;;;;;;;;;2.33;1.00;;;;;24.99;38.34;101610.41;5185342;27;44078;-76
2024/04/15 02:52:41;;;;;;;;;1.00;1.00;;;;;25.06;37.84;101628.16;5184983;27;45085;-76
2024/04/15 02:55:07;;;;;;;;;1.00;0.00;;;;;25.07;39.09;101631.66;5185046;27;43889;-77
2024/04/15 02:57:32;;;;;;;;;0.00;0.00;;;;;24.96;38.52;101609.75;5185225;27;44291;-77
2024/04/15 02:59:58;;;;;;;;;0.00;0.00;;;;;25.02;38.19;101618.91;5184683;27;44161;-76
2024/04/15 03:02:23;;;;;;;;;2.00;0.00;;;;;25.06;39.22;101625.50;5184989;27;43932;-76
2024/04/15 03:04:48;;;;;;;;;1.00;1.00;;;;;24.98;38.47;101609.59;5184984;27;44007;-76
2024/04/15 03:07:14;;;;;;;;;2.00;0.33;;;;;25.06;38.66;101622.00;5183630;27;43850;-77
2024/04/15 03:09:39;;;;;;;;;0.00;0.00;;;;;25.04;38.97;101610.72;5185017;27;43891;-77
2024/04/15 03:12:05;;;;;;;;;0.00;0.00;;;;;24.76;38.77;101561.56;5184641;27;48774;-77
2024/04/15 03:14:31;;;;;;;;;1.00;1.00;;;;;25.00;38.29;101591.59;5184276;27;44110;-77
2024/04/15 03:16:56;;;;;;;;;0.00;0.00;;;;;25.01;38.13;101584.47;5184936;27;43987;-77
2024/04/15 03:19:22;;;;;;;;;0.00;0.00;;;;;25.05;38.46;101591.91;5184989;27;43856;-78
2024/04/15 03:21:48;;;;;;;;;1.00;1.00;;;;;25.00;38.71;101572.13;5184597;27;45647;-78
2024/04/15 03:24:14;;;;;;;;;1.00;0.67;;;;;25.05;38.39;101580.44;5184835;27;44054;-78
2024/04/15 03:26:40;;;;;;;;;0.00;0.00;;;;;25.04;39.15;101578.75;5184863;27;43821;-78
2024/04/15 03:29:05;;;;;;;;;0.00;0.00;;;;;25.05;38.39;101588.41;5182677;27;43901;-77
2024/04/15 03:31:30;;;;;;;;;0.00;0.00;;;;;24.93;38.19;101558.75;5182826;27;44840;-77
2024/04/15 03:33:56;;;;;;;;;0.00;0.00;;;;;24.97;38.30;101570.66;5184724;27;43840;-77
2024/04/15 03:36:21;;;;;;;;;0.00;0.00;;;;;25.01;37.85;101579.16;5184861;27;43805;-76
2024/04/15 03:38:46;;;;;;;;;1.00;1.00;;;;;25.04;37.86;101595.56;5184828;27;43860;-78
2024/04/15 03:41:12;;;;;;;;;1.00;1.00;;;;;25.03;38.31;101577.94;5182648;27;48637;-77
2024/04/15 03:43:37;;;;;;;;;0.00;0.00;;;;;24.88;38.00;101548.63;5184089;27;44148;-77
2024/04/15 03:46:02;;;;;;;;;1.00;0.00;;;;;24.94;37.96;101565.69;5184736;27;44001;-77
2024/04/15 03:48:28;;;;;;;;;0.00;0.00;;;;;25.02;39.23;101576.31;5184407;27;43842;-76
2024/04/15 03:50:53;;;;;;;;;0.67;0.67;;;;;25.05;39.15;101567.94;5184610;27;43945;-77
2024/04/15 03:53:20;;;;;;;;;1.00;1.00;;;;;24.92;38.29;101543.78;5184457;27;43943;-76
2024/04/15 03:55:55;;;;;;;;;0.67;0.67;;;;;25.05;38.52;101559.97;5184581;27;43976;-76
2024/04/15 03:58:21;;;;;;;;;1.00;1.00;;;;;25.04;38.88;101552.16;5184156;27;44141;-76
2024/04/15 04:00:47;;;;;;;;;1.00;1.00;;;;;24.96;38.66;101551.19;5184474;27;44918;-77
2024/04/15 04:03:14;;;;;;;;;0.00;0.00;;;;;24.95;38.96;101538.09;5185374;27;43912;-76
2024/04/15 04:05:40;;;;;;;;;0.00;0.00;;;;;25.01;39.49;101539.22;5184340;27;43830;-76
2024/04/15 04:08:05;;;;;;;;;0.00;0.00;;;;;25.04;39.08;101538.84;5184338;27;44024;-76
2024/04/15 04:10:31;;;;;;;;;1.00;1.00;;;;;25.03;38.52;101538.00;5184195;27;44699;-76
2024/04/15 04:12:57;;;;;;;;;0.00;0.00;;;;;24.89;37.92;101504.22;5183883;27;44322;-76
2024/04/15 04:15:22;;;;;;;;;1.00;0.33;;;;;24.94;38.14;101504.47;5184167;27;44157;-77
2024/04/15 04:17:47;;;;;;;;;1.00;0.00;;;;;24.93;38.90;101518.81;5183850;27;43959;-77
2024/04/15 04:20:13;;;;;;;;;1.00;1.00;;;;;25.03;39.38;101523.88;5184131;27;43924;-78
2024/04/15 04:22:38;;;;;;;;;0.00;0.00;;;;;25.03;38.83;101508.72;5184084;27;43911;-77
2024/04/15 04:25:04;;;;;;;;;0.00;0.00;;;;;25.03;37.96;101500.72;5184199;27;44199;-76
2024/04/15 04:27:29;;;;;;;;;0.00;0.00;;;;;25.04;38.89;101496.25;5183807;27;43896;-76
2024/04/15 04:29:54;;;;;;;;;0.00;0.00;;;;;24.98;37.88;101502.28;5184017;27;45905;-77
2024/04/15 04:32:20;;;;;;;;;1.00;1.00;;;;;25.03;38.26;101522.03;5183917;27;43908;-76
2024/04/15 04:34:45;;;;;;;;;1.00;1.00;;;;;25.02;38.05;101525.72;5184140;27;43856;-76
2024/04/15 04:37:12;;;;;;;;;0.33;0.00;;;;;24.93;39.15;101513.50;5183809;27;43956;-77
2024/04/15 04:39:37;;;;;;;;;1.00;1.00;;;;;24.98;38.03;101518.25;5183689;27;45767;-76
2024/04/15 04:42:03;;;;;;;;;0.33;0.33;;;;;24.92;38.20;101502.00;5183252;27;44050;-76
2024/04/15 04:44:28;;;;;;;;;0.00;0.00;;;;;25.03;38.19;101518.56;5183692;27;46242;-76
2024/04/15 04:46:53;;;;;;;;;1.00;1.00;;;;;25.02;38.90;101509.75;5183644;27;43880;-77
2024/04/15 04:49:19;;;;;;;;;0.00;0.00;;;;;25.00;37.91;101509.09;5181734;27;45057;-77
2024/04/15 04:51:44;;;;;;;;;1.33;0.00;;;;;24.92;39.12;101496.69;5183497;27;44031;-76
2024/04/15 04:54:09;;;;;;;;;2.00;0.00;;;;;25.02;38.43;101508.91;5183758;27;44071;-76
2024/04/15 04:56:35;;;;;;;;;0.33;0.00;;;;;24.87;38.60;101479.63;5183058;27;43821;-77
2024/04/15 04:59:00;;;;;;;;;2.00;1.00;;;;;24.91;38.33;101495.03;5183436;27;43954;-77
2024/04/15 05:01:25;;;;;;;;;1.00;0.00;;;;;25.03;38.60;101506.06;5183493;27;44042;-76
2024/04/15 05:03:51;;;;;;;;;1.00;0.00;;;;;25.03;38.40;101511.38;5183389;27;43973;-76
2024/04/15 05:06:17;;;;;;;;;1.00;1.00;;;;;24.94;38.77;101497.31;5183426;27;44079;-76
2024/04/15 05:08:44;;;;;;;;;0.00;0.00;;;;;25.04;39.03;101510.38;5183246;27;45529;-76
2024/04/15 05:11:10;;;;;;;;;0.00;0.00;;;;;25.03;38.11;101513.25;5182692;27;43999;-77
2024/04/15 05:13:35;;;;;;;;;1.00;1.00;;;;;24.75;38.42;101456.13;5183019;27;44129;-76
2024/04/15 05:16:04;;;;;;;;;2.00;0.00;;;;;25.02;38.96;101496.44;5182884;27;44017;-76
2024/04/15 05:18:30;;;;;;;;;1.33;0.00;;;;;24.94;37.76;101483.19;5182908;27;45684;-76
2024/04/15 05:20:56;;;;;;;;;2.67;0.67;;;;;24.77;37.77;101450.63;5183062;27;43937;-76
2024/04/15 05:23:21;;;;;;;;;0.33;0.00;;;;;25.02;39.15;101500.94;5183047;27;44077;-75
2024/04/15 05:25:47;;;;;;;;;0.00;0.00;;;;;24.86;39.17;101473.47;5182575;27;44051;-74
2024/04/15 05:28:12;;;;;;;;;0.00;0.00;;;;;24.99;38.77;101487.94;5182633;27;46031;-75
2024/04/15 05:30:37;;;;;;;;;0.00;0.00;;;;;25.02;38.93;101498.25;5184450;27;44148;-79
2024/04/15 05:33:03;;;;;;;;;0.00;0.00;;;;;25.01;38.65;101494.78;5184316;27;43980;-82
2024/04/15 05:35:28;;;;;;;;;0.67;0.67;;;;;24.93;38.35;101477.03;5185821;27;44075;-78
2024/04/15 05:37:53;;;;;;;;;1.00;1.00;;;;;25.00;39.09;101486.94;5184589;27;45216;-78
2024/04/15 05:40:19;;;;;;;;;0.00;0.00;;;;;25.02;39.26;101488.44;5187568;27;44102;-75
2024/04/15 05:42:44;;;;;;;;;0.67;0.00;;;;;25.03;39.08;101484.75;5181264;27;43962;-75
2024/04/15 05:45:10;;;;;;;;;1.00;1.00;;;;;25.04;38.86;101472.28;5183130;27;44190;-74
2024/04/15 05:47:35;;;;;;;;;0.33;0.33;;;;;25.06;39.57;101465.75;5183768;27;44700;-75
2024/04/15 05:50:01;;;;;;;;;0.00;0.00;;;;;25.06;39.73;101473.75;5184971;27;43840;-75
2024/04/15 05:52:26;;;;;;;;;2.00;0.00;;;;;25.06;39.49;101462.25;5183188;27;43992;-75
2024/04/15 05:54:51;;;;;;;;;0.00;0.00;;;;;25.09;38.92;101455.75;5184211;27;43874;-76
2024/04/15 05:57:16;;;;;;;;;0.67;0.67;;;;;25.07;38.89;101467.41;5183574;27;45888;-74
2024/04/15 05:59:42;;;;;;;;;0.00;0.00;;;;;25.06;38.42;101455.09;5184190;27;43931;-74
2024/04/15 06:02:07;;;;;;;;;0.00;0.00;;;;;25.00;38.30;101461.16;5185172;27;43918;-75
2024/04/15 06:04:35;;;;;;;;;0.67;0.67;;;;;25.06;38.79;101456.94;5185162;27;43871;-75
2024/04/15 06:07:02;;;;;;;;;0.00;0.00;;;;;25.06;38.50;101447.13;5184548;27;45236;-74
2024/04/15 06:09:27;;;;;;;;;1.67;1.00;;;;;25.07;38.11;101445.28;5184112;27;43951;-73
2024/04/15 06:11:52;;;;;;;;;0.00;0.00;;;;;25.05;38.39;101447.31;5185056;27;43987;-73
2024/04/15 06:14:21;;;;;;;;;0.00;0.00;;;;;24.81;37.45;101410.16;5184971;27;43903;-74
2024/04/15 06:16:47;;;;;;;;;1.00;1.00;;;;;25.03;37.47;101431.50;5185037;27;44787;-75
2024/04/15 06:19:12;;;;;;;;;2.00;2.00;;;;;24.99;37.63;101427.56;5185126;27;44094;-74
2024/04/15 06:21:38;;;;;;;;;0.00;0.00;;;;;25.06;38.41;101433.81;5185429;27;43710;-79
2024/04/15 06:24:03;;;;;;;;;1.67;1.00;;;;;25.07;38.70;101429.31;5185697;27;43964;-84
2024/04/15 06:26:29;;;;;;;;;1.00;1.00;;;;;24.99;38.32;101413.41;5185291;27;44453;-81
2024/04/15 06:28:54;;;;;;;;;0.00;0.00;;;;;25.01;39.08;101417.56;5185309;27;43832;-79
2024/04/15 06:31:19;;;;;;;;;0.00;0.00;;;;;25.11;38.79;101419.94;5185507;27;43821;-79
2024/04/15 06:33:45;;;;;;;;;1.00;0.00;;;;;24.99;38.16;101400.09;5185424;27;43856;-80
2024/04/15 06:36:10;;;;;;;;;1.67;1.00;;;;;25.14;38.14;101424.06;5184618;27;50273;-77
2024/04/15 06:38:35;;;;;;;;;0.00;0.00;;;;;25.15;38.13;101420.41;5183462;27;44513;-79
2024/04/15 06:41:00;;;;;;;;;0.00;0.00;;;;;25.14;38.06;101416.91;5185293;27;44040;-79
2024/04/15 06:43:27;;;;;;;;;0.00;0.00;;;;;25.09;37.98;101394.50;5183432;27;44158;-79
2024/04/15 06:45:52;;;;;;;;;0.00;0.00;;;;;25.15;37.66;101399.94;5184942;27;45323;-80
2024/04/15 06:48:20;;;;;;;;;2.67;1.00;;;;;24.95;38.97;101357.09;5184986;27;44074;-80
2024/04/15 06:50:45;;;;;;;;;1.00;0.00;;;;;25.13;38.55;101391.31;5184967;27;44059;-80
2024/04/15 06:53:11;;;;;;;;;0.00;0.00;;;;;25.17;37.69;101381.91;5185159;27;44068;-79
2024/04/15 06:55:37;;;;;;;;;0.00;0.00;;;;;25.18;38.92;101388.06;5185069;27;44742;-79
2024/04/15 06:58:02;;;;;;;;;0.00;0.00;;;;;25.12;39.09;101367.50;5184971;27;43964;-79
2024/04/15 07:00:27;;;;;;;;;2.00;2.00;;;;;25.19;37.61;101384.38;5184967;27;44347;-79
2024/04/15 07:02:53;;;;;;;;;0.00;0.00;;;;;25.12;38.40;101370.19;5185316;27;43953;-79
2024/04/15 07:05:19;;;;;;;;;0.00;0.00;;;;;25.19;38.61;101381.72;5184110;27;51154;-79
2024/04/15 07:07:44;;;;;;;;;0.00;0.00;;;;;25.14;37.98;101363.66;5184890;27;43996;-78
2024/04/15 07:10:11;;;;;;;;;0.00;0.00;;;;;25.20;38.82;101372.72;5185336;27;44253;-78
2024/04/15 07:12:36;;;;;;;;;0.00;0.00;;;;;25.20;37.63;101370.06;5185008;27;43990;-78
2024/04/15 07:15:01;;;;;;;;;0.00;0.00;;;;;25.17;38.05;101351.78;5184690;27;45031;-79
2024/04/15 07:17:26;;;;;;;;;0.00;0.00;;;;;25.17;38.40;101341.16;5184838;27;43806;-78
2024/04/15 07:19:52;;;;;;;;;1.00;1.00;;;;;24.98;38.99;101307.97;5184679;27;43897;-79
2024/04/15 07:22:18;;;;;;;;;0.67;0.67;;;;;25.07;38.60;101313.00;5185332;27;43873;-79
2024/04/15 07:24:44;;;;;;;;;3.00;1.00;;;;;25.14;37.80;101309.56;5184895;27;45746;-79
2024/04/15 07:27:09;;;;;;;;;0.00;0.00;;;;;25.07;38.26;101283.72;5184727;27;43983;-78
2024/04/15 07:29:35;;;;;;;;;0.00;0.00;;;;;25.21;37.88;101307.00;5184997;27;43973;-79
2024/04/15 07:32:01;;;;;;;;;2.00;0.00;;;;;25.17;37.96;101306.53;5184686;27;44124;-79
2024/04/15 07:34:27;;;;;;;;;1.00;0.00;;;;;25.21;38.97;101299.81;5184228;27;45600;-79
2024/04/15 07:36:52;;;;;;;;;1.67;0.00;;;;;25.22;38.89;101290.81;5184814;27;43922;-79
2024/04/15 07:39:17;;;;;;;;;0.00;0.00;;;;;25.21;38.57;101278.53;5184965;27;44006;-80
2024/04/15 07:41:43;;;;;;;;;1.00;1.00;;;;;25.10;39.08;101242.59;5184783;27;43898;-79
2024/04/15 07:44:08;;;;;;;;;0.00;0.00;;;;;25.17;38.59;101259.44;5184268;27;45737;-79
2024/04/15 07:46:33;;;;;;;;;0.67;0.00;;;;;25.26;38.96;101265.47;5184579;27;43975;-79
2024/04/15 07:48:59;;;;;;;;;1.00;1.00;;;;;25.06;39.24;101233.31;5184001;27;43839;-78
2024/04/15 07:51:24;;;;;;;;;0.33;0.00;;;;;25.06;38.33;101230.66;5184557;27;43815;-79
2024/04/15 07:53:49;;;;;;;;;0.00;0.00;;;;;25.27;39.03;101253.78;5183664;27;43975;-78
2024/04/15 07:56:15;;;;;;;;;0.33;0.00;;;;;25.29;38.46;101251.75;5184448;27;43776;-78
2024/04/15 07:58:40;;;;;;;;;0.00;0.00;;;;;25.29;38.73;101250.94;5184543;27;44248;-78
2024/04/15 08:01:06;;;;;;;;;1.00;0.00;;;;;25.25;39.18;101247.00;5184624;27;43851;-79
2024/04/15 08:03:32;;;;;;;;;0.00;0.00;;;;;25.21;39.08;101227.94;5184061;27;44013;-79
2024/04/15 08:05:57;;;;;;;;;0.00;0.00;;;;;25.28;38.78;101236.78;5184533;27;44126;-78
2024/04/15 08:08:23;;;;;;;;;0.00;0.00;;;;;25.30;38.67;101236.59;5184443;27;43986;-78
2024/04/15 08:10:48;;;;;;;;;0.00;0.00;;;;;25.07;38.02;101195.88;5184391;27;43900;-79
2024/04/15 08:13:14;;;;;;;;;1.00;0.00;;;;;25.20;38.84;101212.97;5182463;27;45762;-79
2024/04/15 08:15:42;;;;;;;;;1.00;1.00;;;;;25.25;38.74;101204.38;5183683;27;43851;-78
2024/04/15 08:18:08;;;;;;;;;2.00;1.00;;;;;25.09;38.19;101170.88;5184031;27;44055;-80
2024/04/15 08:20:33;;;;;;;;;0.67;0.67;;;;;25.27;38.30;101203.19;5184284;27;43829;-79
2024/04/15 08:22:59;;;;;;;;;1.00;0.00;;;;;25.31;38.78;101202.81;5183905;27;43831;-78
2024/04/15 08:25:24;;;;;;;;;3.00;0.00;;;;;25.30;39.01;101199.31;5184014;27;43888;-78
2024/04/15 08:27:50;;;;;;;;;0.67;0.67;;;;;25.27;38.20;101189.88;5182378;27;43967;-79
2024/04/15 08:30:15;;;;;;;;;0.00;0.00;;;;;25.31;37.90;101200.13;5184088;27;43874;-78
2024/04/15 08:32:40;;;;;;;;;1.00;0.00;;;;;25.17;38.44;101165.41;5183625;27;45128;-79
2024/04/15 08:35:06;;;;;;;;;0.00;0.00;;;;;25.31;38.69;101190.31;5183839;27;43968;-78
2024/04/15 08:37:32;;;;;;;;;0.00;0.00;;;;;25.31;38.73;101184.16;5182256;27;43846;-78
2024/04/15 08:39:57;;;;;;;;;2.00;0.00;;;;;25.00;38.05;101115.13;5184089;27;43838;-78
2024/04/15 08:42:45;;;;;;;;;0.00;0.00;;;;;25.29;38.56;101166.53;5183539;27;45051;-79
2024/04/15 08:45:18;;;;;;;;;0.00;0.00;;;;;25.13;38.26;101143.69;5187801;27;44675;-79
2024/04/15 08:47:52;;;;;;;;;0.00;0.00;;;;;25.26;38.97;101158.13;5183356;27;43932;-79
2024/04/15 08:50:21;;;;;;;;;1.00;1.00;;;;;25.30;38.14;101175.34;5183777;27;43967;-79
2024/04/15 08:52:54;;;;;;;;;0.67;0.67;;;;;25.30;38.26;101156.69;5183648;27;44927;-79
2024/04/15 08:55:24;;;;;;;;;1.00;0.67;;;;;25.19;38.34;101160.72;5180176;27;44155;-79
2024/04/15 08:57:51;;;;;;;;;0.00;0.00;;;;;25.28;38.91;101153.41;5183610;27;43951;-79
2024/04/15 09:00:19;;;;;;;;;0.00;0.00;;;;;25.22;38.24;101151.50;5183361;27;43860;-79
2024/04/15 09:02:45;;;;;;;;;0.00;0.00;;;;;25.02;39.18;101112.28;5182724;27;45036;-79
2024/04/15 09:05:11;;;;;;;;;0.00;0.00;;;;;25.31;39.02;101152.19;5184423;27;44163;-79
2024/04/15 09:07:36;;;;;;;;;0.00;0.00;;;;;25.28;38.09;101148.09;5186115;27;44016;-79
2024/04/15 09:10:01;;;;;;;;;0.00;0.00;;;;;25.22;38.06;101120.38;5186259;27;44090;-79
2024/04/15 09:12:41;;;;;;;;;0.00;0.00;;;;;25.18;38.17;101098.69;5186145;27;43914;-79
2024/04/15 09:15:09;;;;;;;;;0.00;0.00;;;;;25.27;38.86;101109.16;5185987;27;44086;-79
2024/04/15 09:17:36;;;;;;;;;0.00;0.00;;;;;25.22;38.19;101082.28;5184051;27;43957;-78
2024/04/15 09:20:02;;;;;;;;;1.00;0.00;;;;;25.30;38.74;101100.78;5186221;27;44032;-78
2024/04/15 09:22:31;;;;;;;;;0.00;0.00;;;;;25.27;38.20;101109.16;5185999;27;44061;-79
2024/04/15 09:24:57;;;;;;;;;0.67;0.00;;;;;25.31;39.13;101109.59;5186042;27;43968;-79
2024/04/15 09:27:25;;;;;;;;;1.33;1.33;;;;;25.15;38.04;101084.91;5186030;27;43967;-78
2024/04/15 09:29:51;;;;;;;;;1.33;0.33;;;;;25.09;37.91;101067.06;5186118;27;43739;-79
2024/04/15 09:32:20;;;;;;;;;0.00;0.00;;;;;25.20;38.11;101077.16;5185432;27;44019;-78
2024/04/15 09:34:46;;;;;;;;;0.00;0.00;;;;;25.26;38.90;101076.41;5185975;27;43935;-79
2024/04/15 09:37:12;;;;;;;;;0.00;0.00;;;;;25.17;38.89;101050.94;5186029;27;43905;-79
2024/04/15 09:39:38;;;;;;;;;0.00;0.00;;;;;25.33;39.00;101072.94;5185977;27;44098;-79
2024/04/15 09:42:05;;;;;;;;;2.33;1.00;;;;;25.32;37.85;101044.66;5185711;27;44782;-78
2024/04/15 09:44:32;;;;;;;;;0.00;0.00;;;;;25.14;38.22;101036.16;5185644;27;43887;-78
2024/04/15 09:47:00;;;;;;;;;0.00;0.00;;;;;25.29;38.00;101051.22;5183683;27;43992;-79
2024/04/15 09:49:29;;;;;;;;;1.33;1.33;;;;;25.18;38.54;101048.09;5185829;27;43908;-79
2024/04/15 09:52:03;;;;;;;;;0.33;0.33;;;;;25.18;38.22;101041.94;5185455;27;44151;-79
2024/04/15 09:54:32;;;;;;;;;2.00;0.00;;;;;25.19;39.17;101032.91;5185760;27;43956;-79
2024/04/15 09:57:09;;;;;;;;;0.00;0.00;;;;;25.29;37.94;101033.38;5185855;27;43968;-79
2024/04/15 09:59:38;;;;;;;;;0.00;0.00;;;;;25.13;38.45;101039.03;5185436;27;43922;-79
2024/04/15 10:02:13;;;;;;;;;0.00;0.00;;;;;25.31;39.07;101062.50;5183629;27;44699;-79
2024/04/15 10:04:40;;;;;;;;;0.00;0.00;;;;;25.22;38.04;101059.16;5185584;27;44010;-79
2024/04/15 10:07:08;;;;;;;;;2.00;1.00;;;;;25.17;38.50;101059.75;5185631;27;43852;-78
2024/04/15 10:09:34;;;;;;;;;1.67;0.00;;;;;25.33;38.47;101080.91;5185728;27;44003;-78
2024/04/15 10:12:00;;;;;;;;;0.00;0.00;;;;;25.21;38.83;101054.88;5185312;27;44102;-78
2024/04/15 10:14:26;;;;;;;;;0.00;0.00;;;;;25.29;38.63;101065.31;5184868;27;43889;-78
2024/04/15 10:16:54;;;;;;;;;0.00;0.00;;;;;25.25;38.22;101063.25;5184995;27;43828;-78
2024/04/15 10:19:33;;;;;;;;;0.00;0.00;;;;;25.27;39.39;101058.56;5185421;27;44177;-78
2024/04/15 10:21:59;;;;;;;;;0.00;0.00;;;;;25.33;39.16;101051.63;5185565;27;45754;-79
2024/04/15 10:24:25;;;;;;;;;0.00;0.00;;;;;25.29;38.38;101052.00;5185324;27;44097;-79
2024/04/15 10:26:54;;;;;;;;;0.00;0.00;;;;;25.13;38.32;101023.91;5185353;27;43969;-79
2024/04/15 10:29:22;;;;;;;;;0.00;0.00;;;;;25.05;38.81;100992.94;5185072;27;43908;-78
2024/04/15 10:31:50;;;;;;;;;1.00;0.00;;;;;25.32;38.73;101018.84;5185142;27;46189;-79
2024/04/15 10:34:15;;;;;;;;;0.00;0.00;;;;;25.24;38.71;101009.19;5185432;27;43970;-79
2024/04/15 10:36:42;;;;;;;;;0.00;0.00;;;;;25.23;38.66;101007.56;5185143;27;44004;-79
2024/04/15 10:39:15;;;;;;;;;0.00;0.00;;;;;25.33;38.15;101017.00;5185610;27;43968;-80
2024/04/15 10:41:43;;;;;;;;;1.33;0.67;;;;;25.20;38.27;100980.50;5183407;27;45828;-80
2024/04/15 10:44:09;;;;;;;;;0.00;0.00;;;;;25.18;39.15;100999.34;5184775;27;44104;-79
2024/04/15 10:46:34;;;;;;;;;0.00;0.00;;;;;25.30;38.22;101004.91;5185223;27;44022;-79
2024/04/15 10:49:03;;;;;;;;;0.33;0.33;;;;;25.28;39.04;100993.63;5185014;27;43933;-79
2024/04/15 10:51:28;;;;;;;;;0.33;0.00;;;;;25.27;38.97;100984.00;5185145;27;44048;-78
2024/04/15 10:53:54;;;;;;;;;0.00;0.00;;;;;25.31;37.89;100989.75;5184922;27;44027;-79
2024/04/15 10:56:19;;;;;;;;;1.00;1.00;;;;;25.32;38.22;100986.09;5185068;27;43773;-79
2024/04/15 10:58:45;;;;;;;;;0.00;0.00;;;;;25.18;39.17;100978.88;5184835;27;43920;-79
2024/04/15 11:01:17;;;;;;;;;3.00;0.00;;;;;25.25;38.43;100989.53;5184724;27;44150;-78
2024/04/15 11:03:43;;;;;;;;;1.00;0.00;;;;;25.25;39.18;100986.88;5185067;27;43973;-78
2024/04/15 11:06:11;;;;;;;;;0.00;0.00;;;;;25.16;38.05;100961.44;5185150;27;43864;-79
2024/04/15 11:08:36;;;;;;;;;1.00;0.00;;;;;25.12;38.28;100954.84;5185049;27;43856;-78
2024/04/15 11:11:02;;;;;;;;;0.33;0.00;;;;;25.32;38.67;100978.09;5184827;27;45032;-78
2024/04/15 11:13:27;;;;;;;;;1.00;1.00;;;;;25.18;38.75;100946.09;5184293;27;43968;-79
2024/04/15 11:15:54;;;;;;;;;0.00;0.00;;;;;25.04;38.67;100919.41;5184967;27;44043;-78
2024/04/15 11:18:20;;;;;;;;;0.00;0.00;;;;;25.21;38.67;100953.69;5184933;27;43976;-78